Time;durP1;ratioP1;P1;durP2;ratioP2;P2;SDS_P1;SDS_P2;PMS_P1;PMS_P2;Temp;Humidity;BMP_temperature;BMP_pressure;BME280_temperature;BME280_humidity;BME280_pressure;Samples;Min_cycle;Max_cycle;Signal;HPM_P1;HPM_P2
2022/07/31 00:09:10;;;;;;;8.75;5.18;;;28.00;45.70;;;;;;21275189;27;20042;-57
2022/07/31 00:19:11;;;;;;;15.30;8.80;;;27.90;45.70;;;;;;21274199;27;20047;-56
2022/07/31 00:29:13;;;;;;;10.05;5.05;;;27.80;45.70;;;;;;21274798;27;20082;-58
2022/07/31 00:39:15;;;;;;;13.85;5.32;;;27.80;46.00;;;;;;21274523;27;20047;-57
2022/07/31 00:49:16;;;;;;;8.45;4.10;;;27.60;46.30;;;;;;21273154;27;20073;-56
2022/07/31 00:59:18;;;;;;;9.77;4.13;;;27.50;46.60;;;;;;21274015;27;20077;-56
2022/07/31 01:09:21;;;;;;;9.68;4.22;;;27.20;47.40;;;;;;21259323;27;20403;-57
2022/07/31 01:19:40;;;;;;;7.10;3.83;;;27.10;47.70;;;;;;21258569;27;20047;-57
2022/07/31 01:29:46;;;;;;;8.40;4.38;;;27.10;47.60;;;;;;21258937;27;20051;-57
2022/07/31 01:39:58;;;;;;;9.60;3.80;;;27.10;48.20;;;;;;21257178;27;20058;-57
2022/07/31 01:50:03;;;;;;;9.02;3.45;;;27.10;48.10;;;;;;21256271;27;20054;-56
2022/07/31 02:00:09;;;;;;;12.02;4.10;;;27.10;48.60;;;;;;21256875;27;20054;-56
2022/07/31 02:10:17;;;;;;;10.70;4.03;;;26.80;49.10;;;;;;21255119;27;20047;-56
2022/07/31 02:20:31;;;;;;;8.95;3.40;;;26.90;48.80;;;;;;21254087;27;20047;-57
2022/07/31 02:30:38;;;;;;;10.27;3.40;;;27.10;48.10;;;;;;21252726;27;20051;-56
2022/07/31 02:40:42;;;;;;;8.02;3.65;;;27.20;47.90;;;;;;21251924;27;20150;-55
2022/07/31 02:50:46;;;;;;;8.00;3.50;;;27.30;48.80;;;;;;21251909;27;20051;-58
2022/07/31 03:01:03;;;;;;;8.95;3.53;;;27.20;49.40;;;;;;21250544;27;20099;-55
2022/07/31 03:11:06;;;;;;;11.73;3.90;;;27.30;50.20;;;;;;21249653;27;20261;-56
2022/07/31 03:21:11;;;;;;;8.75;3.53;;;26.90;51.30;;;;;;21248588;27;20471;-55
2022/07/31 03:31:15;;;;;;;6.90;3.42;;;26.70;51.60;;;;;;21247828;27;20062;-55
2022/07/31 03:41:18;;;;;;;10.90;3.67;;;26.40;52.20;;;;;;21248213;27;20142;-57
2022/07/31 03:51:21;;;;;;;13.48;4.65;;;26.30;52.70;;;;;;21229314;27;20051;-55
2022/07/31 04:01:24;;;;;;;9.23;4.45;;;26.20;52.90;;;;;;21246868;28;20047;-55
2022/07/31 04:11:27;;;;;;;10.45;3.83;;;26.00;53.60;;;;;;21247209;28;20055;-56
2022/07/31 04:21:29;;;;;;;9.52;4.53;;;26.20;54.40;;;;;;21246589;28;20502;-57
2022/07/31 04:31:33;;;;;;;7.55;4.35;;;26.30;55.00;;;;;;21246371;28;20051;-56
2022/07/31 04:41:35;;;;;;;7.15;3.72;;;26.40;56.20;;;;;;21254686;27;20055;-55
2022/07/31 04:51:42;;;;;;;7.68;3.65;;;26.50;56.20;;;;;;21261014;27;20130;-55
2022/07/31 05:01:46;;;;;;;7.15;4.93;;;26.40;56.20;;;;;;21260262;27;20047;-57
2022/07/31 05:11:49;;;;;;;10.50;4.80;;;26.50;55.80;;;;;;21260399;27;20380;-56
2022/07/31 05:21:53;;;;;;;10.15;4.55;;;26.50;55.80;;;;;;21241933;27;20453;-56
2022/07/31 05:31:55;;;;;;;9.07;4.43;;;26.50;55.50;;;;;;21239204;27;20044;-55
2022/07/31 05:41:57;;;;;;;8.90;4.03;;;26.60;54.70;;;;;;21257006;27;20051;-56
2022/07/31 05:51:59;;;;;;;9.38;3.70;;;26.50;52.90;;;;;;21256052;27;20054;-57
2022/07/31 06:02:03;;;;;;;8.90;3.33;;;26.50;50.00;;;;;;21255945;27;20131;-56
2022/07/31 06:12:05;;;;;;;9.93;4.22;;;26.30;50.30;;;;;;21255783;27;20073;-56
2022/07/31 06:22:07;;;;;;;9.50;4.00;;;26.30;50.40;;;;;;21253335;27;20047;-56
2022/07/31 06:32:09;;;;;;;;;;;26.30;50.10;;;;;;21235346;27;20094;-55
2022/07/31 06:42:20;;;;;;;7.00;3.60;;;26.30;50.10;;;;;;21233796;27;19982;-57
2022/07/31 06:52:22;;;;;;;7.80;3.60;;;26.40;49.80;;;;;;21233157;27;20082;-56
2022/07/31 07:02:24;;;;;;;7.95;3.45;;;26.80;48.40;;;;;;21250520;27;20486;-55
2022/07/31 07:12:25;;;;;;;10.65;4.07;;;27.30;47.70;;;;;;21249294;27;20058;-56
2022/07/31 07:22:28;;;;;;;7.32;3.78;;;27.70;46.50;;;;;;21248434;27;20047;-57
2022/07/31 07:32:30;;;;;;;6.65;3.72;;;28.10;45.90;;;;;;21248593;27;20051;-56
2022/07/31 07:42:32;;;;;;;12.25;4.10;;;28.50;45.70;;;;;;21247525;27;20047;-57
2022/07/31 07:52:35;;;;;;;6.78;3.90;;;29.00;45.20;;;;;;21247544;27;20054;-56
2022/07/31 08:02:37;;;;;;;8.90;4.35;;;29.10;45.00;;;;;;21247155;28;20449;-55
2022/07/31 08:12:39;;;;;;;10.10;4.20;;;29.50;45.20;;;;;;21252136;27;20070;-59
2022/07/31 08:22:42;;;;;;;8.00;4.47;;;29.70;46.00;;;;;;21264575;27;20043;-58
2022/07/31 08:32:44;;;;;;;9.70;4.43;;;29.80;46.80;;;;;;21262553;27;20057;-56
2022/07/31 08:42:46;;;;;;;9.50;3.90;;;30.00;48.10;;;;;;21262022;27;20131;-56
2022/07/31 08:52:48;;;;;;;18.80;10.98;;;30.20;47.10;;;;;;21261138;27;20055;-55
2022/07/31 09:02:53;;;;;;;6.60;3.83;;;30.50;46.10;;;;;;21242176;27;20072;-56
2022/07/31 09:12:55;;;;;;;6.80;4.00;;;30.80;45.60;;;;;;21260640;27;20073;-56
2022/07/31 09:23:06;;;;;;;8.20;4.07;;;30.90;45.20;;;;;;21258871;27;20395;-55
2022/07/31 09:33:18;;;;;;;10.13;5.15;;;31.00;45.10;;;;;;21257444;27;20053;-57
2022/07/31 09:43:23;;;;;;;10.10;4.30;;;30.90;44.90;;;;;;21256690;27;20420;-56
2022/07/31 09:53:26;;;;;;;7.65;4.35;;;30.80;44.80;;;;;;21256043;27;20490;-56
2022/07/31 10:03:29;;;;;;;6.00;4.20;;;31.10;44.10;;;;;;21255219;27;20078;-57
2022/07/31 10:13:36;;;;;;;7.40;4.40;;;31.30;43.80;;;;;;21254100;27;20515;-56
2022/07/31 10:23:40;;;;;;;11.25;4.93;;;31.30;43.70;;;;;;21235782;27;20082;-55
2022/07/31 10:33:44;;;;;;;9.70;5.00;;;31.40;43.70;;;;;;21251978;27;20094;-56
2022/07/31 10:43:56;;;;;;;11.55;4.85;;;31.60;43.70;;;;;;21251945;27;20487;-57
2022/07/31 10:54:00;;;;;;;8.95;4.88;;;31.90;43.10;;;;;;21252058;27;20059;-57
2022/07/31 11:04:03;;;;;;;6.68;4.32;;;31.80;43.50;;;;;;21250902;27;20092;-55
2022/07/31 11:14:05;;;;;;;7.50;4.60;;;31.80;42.60;;;;;;21249674;27;20197;-56
2022/07/31 11:24:17;;;;;;;8.20;4.47;;;31.90;42.90;;;;;;21249547;27;20042;-54
2022/07/31 11:34:20;;;;;;;9.15;4.75;;;32.10;42.20;;;;;;21250634;27;20498;-55
2022/07/31 11:44:22;;;;;;;9.38;4.70;;;32.40;40.50;;;;;;21229454;27;20135;-56
2022/07/31 11:54:24;;;;;;;7.32;4.75;;;32.70;40.40;;;;;;21246475;27;20051;-58
2022/07/31 12:04:28;;;;;;;7.30;4.57;;;32.60;40.50;;;;;;21247309;28;20494;-56
2022/07/31 12:14:33;;;;;;;12.55;4.65;;;32.90;39.30;;;;;;21246011;28;20047;-57
2022/07/31 12:24:34;;;;;;;9.80;4.30;;;33.00;38.40;;;;;;21245538;28;20429;-57
2022/07/31 12:34:41;;;;;;;8.90;4.82;;;33.10;38.60;;;;;;21245285;28;20051;-56
2022/07/31 12:44:51;;;;;;;10.07;4.95;;;33.50;37.30;;;;;;21161226;28;20054;-57
2022/07/31 12:54:53;;;;;;;6.70;4.93;;;33.60;37.30;;;;;;21160205;28;20065;-56
2022/07/31 13:04:55;;;;;;;8.45;4.72;;;33.80;36.60;;;;;;21171473;28;20051;-56
2022/07/31 13:14:57;;;;;;;9.07;4.85;;;34.00;36.10;;;;;;21174036;28;20079;-57
2022/07/31 13:25:00;;;;;;;5.70;3.97;;;34.20;34.60;;;;;;21175150;28;20104;-55
2022/07/31 13:35:04;;;;;;;6.88;4.45;;;34.40;34.10;;;;;;21167257;27;20047;-58
2022/07/31 13:45:08;;;;;;;8.25;4.20;;;34.60;33.10;;;;;;21257323;27;20047;-57
2022/07/31 13:55:12;;;;;;;4.75;3.47;;;34.80;31.90;;;;;;21258125;27;20450;-57
2022/07/31 14:05:17;;;;;;;6.35;3.30;;;34.90;30.60;;;;;;21256168;27;20051;-56
2022/07/31 14:15:19;;;;;;;7.60;3.20;;;35.00;29.90;;;;;;21254439;27;20047;-57
2022/07/31 14:25:22;;;;;;;8.70;3.55;;;35.00;29.10;;;;;;21254360;27;20497;-57
2022/07/31 14:35:24;;;;;;;5.80;3.47;;;35.00;29.60;;;;;;21253316;27;20062;-58
2022/07/31 14:45:26;;;;;;;8.63;5.40;;;35.20;28.80;;;;;;21252389;27;20142;-57
2022/07/31 14:55:28;;;;;;;4.93;3.55;;;35.30;29.10;;;;;;21252111;27;20085;-57
2022/07/31 15:05:30;;;;;;;6.88;3.30;;;35.60;28.00;;;;;;21250645;27;20073;-56
2022/07/31 15:15:32;;;;;;;7.82;2.83;;;35.30;27.80;;;;;;21249936;27;20047;-56
2022/07/31 15:25:34;;;;;;;5.75;3.72;;;35.50;27.10;;;;;;21248459;27;20046;-58
2022/07/31 15:35:36;;;;;;;6.30;2.90;;;35.80;25.60;;;;;;21249399;27;20099;-55
2022/07/31 15:45:38;;;;;;;6.00;2.90;;;35.60;24.20;;;;;;21248049;27;20147;-58
2022/07/31 15:55:40;;;;;;;8.25;2.90;;;35.60;26.10;;;;;;21247600;27;20051;-58
2022/07/31 16:05:41;;;;;;;8.75;3.88;;;35.60;26.20;;;;;;21247261;28;20062;-57
2022/07/31 16:15:43;;;;;;;7.53;3.78;;;35.70;27.00;;;;;;21247086;28;20078;-57
2022/07/31 16:25:47;;;;;;;7.55;3.75;;;35.80;26.60;;;;;;21247408;28;20066;-58
2022/07/31 16:35:48;;;;;;;5.85;3.88;;;35.60;27.30;;;;;;21253514;27;20160;-56
2022/07/31 16:45:51;;;;;;;8.57;5.43;;;35.70;26.80;;;;;;21262424;27;20061;-57
2022/07/31 16:55:52;;;;;;;8.98;3.58;;;35.70;27.00;;;;;;21260626;27;20099;-56
2022/07/31 17:05:54;;;;;;;7.75;3.35;;;35.70;27.20;;;;;;21241641;27;20066;-55
2022/07/31 17:15:56;;;;;;;6.65;3.85;;;35.70;27.50;;;;;;21240629;27;20096;-56
2022/07/31 17:25:58;;;;;;;6.93;3.25;;;35.80;26.90;;;;;;21258429;27;20122;-56
2022/07/31 17:35:59;;;;;;;5.22;3.40;;;35.80;26.80;;;;;;21257455;27;20047;-59
2022/07/31 17:46:02;;;;;;;6.72;3.75;;;35.80;26.80;;;;;;21256798;27;20138;-57
2022/07/31 17:56:05;;;;;;;8.57;4.00;;;35.80;26.80;;;;;;21256843;27;20134;-56
2022/07/31 18:06:06;;;;;;;5.53;3.55;;;35.60;26.90;;;;;;21255516;27;20070;-55
2022/07/31 18:16:09;;;;;;;5.40;3.22;;;35.60;26.80;;;;;;21253825;27;20080;-55
2022/07/31 18:26:22;;;;;;;5.93;3.63;;;35.50;27.00;;;;;;21254137;27;20054;-58
2022/07/31 18:36:27;;;;;;;8.18;5.55;;;35.50;27.50;;;;;;21235399;27;20051;-54
2022/07/31 18:46:36;;;;;;;6.93;4.20;;;35.30;28.10;;;;;;21252515;27;20054;-58
2022/07/31 18:56:41;;;;;;;6.68;3.80;;;35.30;28.00;;;;;;21250515;27;20071;-57
2022/07/31 19:06:47;;;;;;;7.03;4.47;;;35.10;28.20;;;;;;21251254;27;20455;-55
2022/07/31 19:16:58;;;;;;;;;;;35.00;28.40;;;;;;21250781;27;20379;-55
2022/07/31 19:27:07;;;;;;;7.68;3.60;;;34.90;28.10;;;;;;21250151;27;20086;-54
2022/07/31 19:37:16;;;;;;;6.18;4.03;;;34.70;28.20;;;;;;21247897;27;20058;-54
2022/07/31 19:47:26;;;;;;;7.53;3.55;;;34.50;28.40;;;;;;21248879;27;20043;-58
2022/07/31 19:57:41;;;;;;;5.47;3.17;;;34.30;26.40;;;;;;21247277;27;20142;-57
2022/07/31 20:07:47;;;;;;;6.65;3.17;;;34.00;24.40;;;;;;21250931;27;20047;-58
2022/07/31 20:17:57;;;;;;;5.90;3.80;;;33.90;23.90;;;;;;21264155;27;20039;-55
2022/07/31 20:28:02;;;;;;;6.60;3.42;;;33.70;23.70;;;;;;21263438;27;20138;-56
2022/07/31 20:38:11;;;;;;;5.45;2.67;;;33.60;23.40;;;;;;21262441;27;20058;-56
2022/07/31 20:48:16;;;;;;;6.38;2.42;;;33.40;23.50;;;;;;21262271;27;20145;-57
2022/07/31 20:58:22;;;;;;;6.63;4.40;;;33.10;24.10;;;;;;21262513;27;20051;-55
2022/07/31 21:08:26;;;;;;;10.27;5.57;;;32.90;24.40;;;;;;21244405;27;20074;-55
2022/07/31 21:18:32;;;;;;;5.68;3.58;;;32.80;25.20;;;;;;21259867;27;20047;-56
2022/07/31 21:28:34;;;;;;;3.58;2.88;;;32.60;25.60;;;;;;21260480;27;20051;-56
2022/07/31 21:38:39;;;;;;;4.53;3.35;;;32.50;25.60;;;;;;21259634;27;20051;-56
2022/07/31 21:48:50;;;;;;;8.43;5.85;;;32.30;26.60;;;;;;21241609;27;20083;-57
2022/07/31 21:58:54;;;;;;;9.27;3.00;;;32.10;27.60;;;;;;21257749;27;20067;-55
2022/07/31 22:08:59;;;;;;;3.13;1.70;;;32.10;27.00;;;;;;21255614;27;20051;-55
2022/07/31 22:19:07;;;;;;;6.55;2.08;;;32.20;24.20;;;;;;21255063;27;20047;-56
2022/07/31 22:29:14;;;;;;;3.60;1.55;;;32.10;24.30;;;;;;21254441;27;20066;-58
2022/07/31 22:39:18;;;;;;;2.95;1.27;;;32.10;24.10;;;;;;21234574;27;20058;-56
2022/07/31 22:49:20;;;;;;;3.25;1.27;;;32.00;24.10;;;;;;21252864;27;20475;-56
2022/07/31 22:59:22;;;;;;;2.97;1.92;;;31.80;24.50;;;;;;21251396;27;20138;-56
2022/07/31 23:09:40;;;;;;;1.55;1.23;;;31.60;24.40;;;;;;21250518;27;20051;-56
2022/07/31 23:19:55;;;;;;;3.33;1.40;;;31.60;24.10;;;;;;21249643;27;20392;-55
2022/07/31 23:30:03;;;;;;;2.95;1.30;;;31.50;24.00;;;;;;21249055;27;20050;-55
2022/07/31 23:40:13;;;;;;;2.40;1.40;;;31.40;24.00;;;;;;21248707;27;20054;-57
2022/07/31 23:50:30;;;;;;;3.03;1.30;;;31.20;24.30;;;;;;21247812;27;20134;-55
